createdAt,value
2022-10-29T00:01:20.098Z,11.32
2022-10-29T00:03:48.408Z,14.13
2022-10-29T00:06:15.780Z,13.25
2022-10-29T00:08:43.208Z,14.55
2022-10-29T00:11:14.927Z,15.55
2022-10-29T00:13:42.690Z,13.05
2022-10-29T00:16:12.589Z,14.32
2022-10-29T00:18:39.859Z,14.32
2022-10-29T00:21:08.383Z,13.52
2022-10-29T00:23:35.987Z,12.95
2022-10-29T00:26:03.794Z,14.25
2022-10-29T00:28:31.067Z,15.30
2022-10-29T00:30:58.650Z,19.75
2022-10-29T00:33:25.867Z,12.27
2022-10-29T00:36:01.466Z,18.48
2022-10-29T00:38:28.898Z,13.15
2022-10-29T00:40:56.314Z,15.50
2022-10-29T00:43:25.320Z,14.10
2022-10-29T00:46:03.607Z,15.60
2022-10-29T00:48:34.685Z,12.40
2022-10-29T00:51:03.448Z,15.05
2022-10-29T00:53:35.693Z,15.52
2022-10-29T00:56:03.045Z,12.98
2022-10-29T00:58:30.365Z,15.30
2022-10-29T01:00:57.601Z,12.38
2022-10-29T01:03:24.867Z,17.10
2022-10-29T01:05:53.142Z,15.15
2022-10-29T01:08:21.315Z,14.63
2022-10-29T01:11:17.205Z,15.98
2022-10-29T01:14:22.229Z,15.40
2022-10-29T01:16:55.075Z,14.52
2022-10-29T01:19:49.317Z,15.70
2022-10-29T01:22:30.275Z,15.80
2022-10-29T01:25:09.008Z,12.00
2022-10-29T01:28:06.749Z,18.15
2022-10-29T01:31:00.587Z,11.48
2022-10-29T01:33:30.818Z,14.27
2022-10-29T01:35:58.372Z,15.23
2022-10-29T01:38:48.753Z,14.45
2022-10-29T01:41:20.136Z,14.68
2022-10-29T01:44:05.576Z,13.95
2022-10-29T01:46:40.616Z,12.65
2022-10-29T01:49:12.952Z,14.35
2022-10-29T01:51:40.447Z,15.75
2022-10-29T01:54:09.386Z,15.00
2022-10-29T01:56:36.579Z,15.27
2022-10-29T01:59:14.328Z,12.80
2022-10-29T02:02:15.567Z,15.75
2022-10-29T02:05:06.279Z,12.02
2022-10-29T02:07:50.736Z,13.63
2022-10-29T02:10:28.691Z,11.52
2022-10-29T02:12:56.546Z,10.63
2022-10-29T02:15:38.774Z,14.27
2022-10-29T02:20:33.156Z,11.65
2022-10-29T02:23:00.720Z,13.40
2022-10-29T02:25:28.047Z,13.30
2022-10-29T02:27:59.628Z,15.38
2022-10-29T02:30:26.839Z,11.32
2022-10-29T02:32:54.345Z,12.07
2022-10-29T02:35:21.778Z,10.73
2022-10-29T02:37:49.180Z,12.27
2022-10-29T02:40:16.640Z,13.35
2022-10-29T02:42:43.870Z,13.85
2022-10-29T02:45:11.271Z,13.88
2022-10-29T02:47:38.454Z,14.30
2022-10-29T02:50:05.823Z,12.65
2022-10-29T02:52:33.015Z,13.95
2022-10-29T02:55:00.219Z,13.52
2022-10-29T02:57:27.406Z,13.63
2022-10-29T02:59:54.738Z,14.52
2022-10-29T03:02:21.659Z,19.92
2022-10-29T03:04:49.009Z,12.07
2022-10-29T03:07:16.208Z,13.88
2022-10-29T03:09:43.418Z,13.98
2022-10-29T03:12:10.642Z,13.57
2022-10-29T03:14:37.888Z,14.70
2022-10-29T03:17:05.172Z,13.63
2022-10-29T03:19:32.438Z,11.95
2022-10-29T03:21:59.607Z,13.00
2022-10-29T03:24:26.798Z,11.43
2022-10-29T03:26:53.999Z,11.38
2022-10-29T03:29:21.311Z,10.90
2022-10-29T03:31:48.517Z,10.93
2022-10-29T03:34:16.064Z,10.23
2022-10-29T03:36:43.403Z,10.32
2022-10-29T03:39:10.653Z,9.95
2022-10-29T03:41:37.868Z,9.70
2022-10-29T03:44:05.151Z,9.90
2022-10-29T03:46:32.367Z,10.60
2022-10-29T03:48:59.548Z,8.90
2022-10-29T03:51:26.731Z,9.52
2022-10-29T03:53:53.916Z,10.25
2022-10-29T03:56:21.184Z,10.02
2022-10-29T03:58:48.403Z,9.60
2022-10-29T04:01:15.673Z,10.85
2022-10-29T04:03:44.016Z,10.70
2022-10-29T04:06:13.070Z,9.73
2022-10-29T04:11:08.127Z,9.30
2022-10-29T04:13:35.408Z,9.93
2022-10-29T04:16:02.790Z,9.45
2022-10-29T04:18:30.051Z,9.48
2022-10-29T04:22:45.383Z,10.27
2022-10-29T04:29:23.814Z,9.48
2022-10-29T04:31:51.183Z,9.98
2022-10-29T04:34:18.488Z,9.93
2022-10-29T04:36:45.701Z,9.55
2022-10-29T04:39:13.083Z,9.95
2022-10-29T04:41:40.296Z,10.60
2022-10-29T04:44:07.559Z,9.65
2022-10-29T04:46:34.822Z,9.38
2022-10-29T04:49:02.189Z,11.82
2022-10-29T04:51:29.449Z,9.40
2022-10-29T04:53:56.723Z,10.43
2022-10-29T04:56:23.915Z,11.70
2022-10-29T04:58:52.569Z,11.95
2022-10-29T05:01:20.225Z,11.82
2022-10-29T05:03:47.684Z,12.80
2022-10-29T05:06:14.877Z,13.90
2022-10-29T05:08:42.143Z,13.68
2022-10-29T05:11:09.390Z,13.73
2022-10-29T05:13:36.381Z,14.20
2022-10-29T05:16:03.891Z,11.02
2022-10-29T05:18:31.076Z,12.27
2022-10-29T05:20:58.378Z,11.50
2022-10-29T05:23:25.603Z,11.25
2022-10-29T05:25:52.891Z,10.63
2022-10-29T05:28:21.871Z,12.20
2022-10-29T05:30:50.264Z,10.70
2022-10-29T05:33:18.679Z,10.38
2022-10-29T05:35:46.306Z,11.45
2022-10-29T05:38:13.927Z,11.95
2022-10-29T05:40:42.843Z,13.25
2022-10-29T05:43:10.083Z,13.32
2022-10-29T05:45:37.465Z,11.75
2022-10-29T05:48:05.223Z,14.13
2022-10-29T05:50:33.521Z,12.82
2022-10-29T05:53:05.861Z,13.52
2022-10-29T05:55:34.463Z,13.05
2022-10-29T05:58:07.019Z,13.45
2022-10-29T06:00:36.611Z,13.73
2022-10-29T06:03:04.013Z,12.77
2022-10-29T06:05:31.272Z,15.98
2022-10-29T06:07:59.449Z,14.68
2022-10-29T06:10:28.445Z,12.77
2022-10-29T06:12:55.719Z,12.65
2022-10-29T06:15:23.205Z,13.25
2022-10-29T06:17:50.853Z,15.85
2022-10-29T06:20:21.040Z,11.27
2022-10-29T06:22:48.365Z,12.25
2022-10-29T06:25:15.614Z,12.10
2022-10-29T06:27:42.843Z,13.75
2022-10-29T06:30:10.251Z,13.68
2022-10-29T06:32:37.456Z,12.07
2022-10-29T06:35:04.743Z,12.63
2022-10-29T06:37:33.327Z,12.38
2022-10-29T06:40:00.600Z,12.48
2022-10-29T06:42:27.843Z,13.77
2022-10-29T06:44:55.004Z,12.35
2022-10-29T06:47:22.242Z,13.30
2022-10-29T06:49:49.064Z,13.05
2022-10-29T06:52:16.282Z,13.02
2022-10-29T06:54:43.495Z,12.45
2022-10-29T06:57:10.763Z,15.60
2022-10-29T06:59:37.955Z,13.32
2022-10-29T07:02:05.442Z,15.05
2022-10-29T07:04:32.690Z,17.55
2022-10-29T07:06:59.942Z,13.00
2022-10-29T07:09:27.224Z,15.30
2022-10-29T07:11:54.506Z,13.80
2022-10-29T07:14:21.701Z,14.63
2022-10-29T07:16:49.009Z,18.60
2022-10-29T07:19:16.263Z,15.93
2022-10-29T07:21:43.642Z,16.17
2022-10-29T07:24:11.056Z,15.98
2022-10-29T07:26:38.279Z,14.07
2022-10-29T07:29:05.625Z,14.85
2022-10-29T07:31:32.940Z,16.23
2022-10-29T07:34:00.161Z,15.73
2022-10-29T07:36:27.450Z,16.98
2022-10-29T07:38:54.689Z,17.70
2022-10-29T07:41:21.890Z,15.48
2022-10-29T07:43:49.066Z,14.98
2022-10-29T07:46:16.270Z,18.42
2022-10-29T07:48:43.243Z,17.58
2022-10-29T07:51:10.487Z,17.58
2022-10-29T07:53:37.683Z,19.25
2022-10-29T07:56:04.988Z,16.08
2022-10-29T07:58:32.231Z,18.02
2022-10-29T08:01:00.908Z,16.30
2022-10-29T08:03:28.313Z,18.40
2022-10-29T08:05:57.774Z,15.93
2022-10-29T08:08:25.566Z,17.20
2022-10-29T08:10:52.837Z,16.55
2022-10-29T08:13:20.083Z,19.00
2022-10-29T08:15:47.635Z,17.77
2022-10-29T08:18:16.417Z,18.08
2022-10-29T08:20:43.827Z,20.65
2022-10-29T08:23:11.147Z,18.77
2022-10-29T08:25:41.475Z,19.42
2022-10-29T08:28:13.969Z,20.17
2022-10-29T08:30:41.748Z,18.30
2022-10-29T08:33:10.877Z,17.38
2022-10-29T08:35:38.200Z,19.60
2022-10-29T08:38:05.450Z,20.63
2022-10-29T08:40:44.111Z,19.40
2022-10-29T08:43:22.819Z,17.92
2022-10-29T08:45:52.577Z,19.30
2022-10-29T08:48:34.883Z,21.17
2022-10-29T08:51:06.929Z,26.35
2022-10-29T08:53:54.270Z,20.90
2022-10-29T08:56:31.405Z,21.73
2022-10-29T08:59:16.027Z,21.67
2022-10-29T09:01:43.480Z,20.65
2022-10-29T09:04:33.571Z,22.55
2022-10-29T09:07:14.008Z,23.95
2022-10-29T09:09:50.834Z,23.50
2022-10-29T09:12:36.695Z,25.73
2022-10-29T09:15:18.296Z,21.40
2022-10-29T09:17:45.761Z,25.23
2022-10-29T09:20:37.362Z,24.45
2022-10-29T09:23:04.586Z,22.92
2022-10-29T09:25:33.827Z,21.88
2022-10-29T09:28:09.846Z,21.20
2022-10-29T09:31:10.641Z,25.23
2022-10-29T09:33:39.195Z,21.27
2022-10-29T09:36:16.058Z,23.88
2022-10-29T09:39:09.659Z,20.55
2022-10-29T09:41:37.619Z,21.48
2022-10-29T09:44:17.388Z,19.77
2022-10-29T09:47:08.587Z,23.00
2022-10-29T09:49:39.603Z,21.38
2022-10-29T09:52:12.372Z,24.30
2022-10-29T09:54:39.624Z,20.98
2022-10-29T09:57:15.617Z,22.50
2022-10-29T09:59:47.977Z,22.35
2022-10-29T10:02:37.453Z,24.63
2022-10-29T10:05:13.672Z,20.98
2022-10-29T10:07:41.512Z,19.08
2022-10-29T10:10:23.559Z,25.27
2022-10-29T10:15:24.023Z,24.85
2022-10-29T10:18:02.659Z,23.77
2022-10-29T10:20:36.072Z,24.70
2022-10-29T10:23:28.242Z,25.75
2022-10-29T10:26:00.438Z,24.48
2022-10-29T10:28:34.717Z,27.92
2022-10-29T10:31:04.473Z,24.15
2022-10-29T10:33:33.911Z,23.02
2022-10-29T10:36:10.448Z,23.33
2022-10-29T10:38:50.107Z,24.67
2022-10-29T10:41:27.417Z,23.17
2022-10-29T10:44:00.397Z,23.38
2022-10-29T10:46:32.338Z,26.85
2022-10-29T10:48:59.611Z,23.58
2022-10-29T10:51:28.709Z,22.42
2022-10-29T10:56:22.800Z,32.00
2022-10-29T10:59:03.510Z,20.90
2022-10-29T11:01:37.268Z,23.55
2022-10-29T11:04:13.955Z,21.67
2022-10-29T11:06:44.577Z,23.90
2022-10-29T11:09:32.471Z,27.23
2022-10-29T11:12:13.580Z,25.00
2022-10-29T11:14:52.662Z,20.23
2022-10-29T11:17:28.285Z,21.33
2022-10-29T11:19:59.502Z,23.45
2022-10-29T11:22:42.702Z,19.70
2022-10-29T11:25:26.598Z,22.10
2022-10-29T11:28:18.991Z,21.55
2022-10-29T11:30:56.197Z,20.83
2022-10-29T11:33:58.892Z,19.63
2022-10-29T11:36:34.532Z,20.48
2022-10-29T11:39:17.205Z,18.77
2022-10-29T11:41:44.466Z,17.67
2022-10-29T11:44:15.832Z,21.00
2022-10-29T11:47:09.347Z,18.38
2022-10-29T11:49:44.832Z,17.17
2022-10-29T11:54:44.419Z,17.63
2022-10-29T11:57:23.212Z,16.00
2022-10-29T11:59:50.436Z,13.95
2022-10-29T12:02:17.631Z,21.25
2022-10-29T12:04:50.760Z,18.20
2022-10-29T12:07:35.889Z,15.95
2022-10-29T12:10:12.826Z,16.50
2022-10-29T12:12:46.573Z,16.20
2022-10-29T12:15:26.850Z,19.10
2022-10-29T12:18:04.536Z,20.70
2022-10-29T12:20:31.803Z,17.98
2022-10-29T12:23:04.423Z,19.63
2022-10-29T12:26:00.538Z,16.25
2022-10-29T12:28:42.864Z,19.77
2022-10-29T12:31:10.110Z,18.08
2022-10-29T12:33:37.877Z,18.08
2022-10-29T12:36:17.216Z,18.73
2022-10-29T12:38:50.530Z,21.38
2022-10-29T12:41:32.819Z,16.02
2022-10-29T12:44:04.545Z,16.60
2022-10-29T12:46:31.747Z,18.92
2022-10-29T12:49:09.126Z,21.13
2022-10-29T12:54:31.763Z,17.00
2022-10-29T12:57:13.494Z,16.73
2022-10-29T12:59:42.534Z,18.90
2022-10-29T13:05:06.989Z,19.60
2022-10-29T13:07:34.689Z,18.00
2022-10-29T13:10:28.635Z,19.00
2022-10-29T13:12:55.837Z,23.75
2022-10-29T13:15:43.288Z,20.92
2022-10-29T13:18:13.140Z,19.20
2022-10-29T13:20:43.008Z,18.42
2022-10-29T13:23:21.867Z,20.75
2022-10-29T13:25:49.330Z,20.38
2022-10-29T13:28:16.546Z,21.23
2022-10-29T13:31:07.606Z,19.77
2022-10-29T13:33:34.780Z,22.05
2022-10-29T13:36:02.564Z,22.98
2022-10-29T13:38:52.147Z,21.52
2022-10-29T13:41:42.060Z,21.08
2022-10-29T13:44:22.923Z,17.90
2022-10-29T13:46:50.138Z,22.77
2022-10-29T13:49:22.172Z,19.08
2022-10-29T13:52:09.571Z,17.60
2022-10-29T13:54:54.858Z,19.88
2022-10-29T13:57:32.578Z,22.95
2022-10-29T14:00:05.546Z,20.52
2022-10-29T14:02:58.495Z,20.42
2022-10-29T14:05:31.319Z,22.33
2022-10-29T14:08:24.852Z,21.48
2022-10-29T14:10:58.102Z,21.85
2022-10-29T14:13:54.680Z,21.30
2022-10-29T14:16:29.149Z,20.10
2022-10-29T14:18:56.436Z,21.52
2022-10-29T14:21:28.740Z,22.08
2022-10-29T14:23:56.914Z,24.83
2022-10-29T14:26:24.896Z,19.65
2022-10-29T14:28:52.902Z,23.45
2022-10-29T14:31:24.443Z,26.92
2022-10-29T14:33:55.758Z,20.40
2022-10-29T14:36:43.120Z,20.83
2022-10-29T14:39:32.484Z,25.65
2022-10-29T14:42:04.953Z,20.10
2022-10-29T14:44:32.954Z,24.15
2022-10-29T14:47:21.195Z,19.77
2022-10-29T14:49:50.760Z,24.08
2022-10-29T14:52:33.979Z,19.60
2022-10-29T14:55:08.910Z,17.65
2022-10-29T14:57:42.085Z,18.50
2022-10-29T15:00:22.293Z,20.65
2022-10-29T15:02:49.736Z,19.05
2022-10-29T15:05:31.661Z,23.38
2022-10-29T15:08:06.427Z,23.75
2022-10-29T15:10:46.364Z,24.20
2022-10-29T15:13:27.837Z,18.95
2022-10-29T15:15:55.067Z,19.17
2022-10-29T15:18:23.012Z,20.23
2022-10-29T15:20:51.532Z,22.77
2022-10-29T15:23:24.316Z,20.92
2022-10-29T15:25:57.249Z,26.02
2022-10-29T15:28:26.780Z,22.38
2022-10-29T15:30:54.293Z,21.70
2022-10-29T15:33:31.525Z,20.30
2022-10-29T15:36:04.075Z,24.95
2022-10-29T15:38:31.492Z,24.75
2022-10-29T15:41:14.291Z,22.70
2022-10-29T15:43:55.844Z,23.13
2022-10-29T15:46:28.020Z,22.08
2022-10-29T15:48:55.385Z,23.35
2022-10-29T15:51:28.584Z,22.60
2022-10-29T15:53:58.549Z,22.77
2022-10-29T15:56:25.971Z,23.08
2022-10-29T15:58:53.546Z,20.67
2022-10-29T16:01:20.952Z,22.63
2022-10-29T16:03:48.576Z,24.15
2022-10-29T16:06:16.029Z,21.92
2022-10-29T16:08:47.586Z,19.73
2022-10-29T16:11:16.984Z,19.58
2022-10-29T16:13:44.200Z,22.70
2022-10-29T16:16:17.296Z,23.55
2022-10-29T16:18:49.098Z,21.83
2022-10-29T16:21:20.497Z,21.25
2022-10-29T16:23:48.226Z,20.42
2022-10-29T16:26:17.233Z,18.23
2022-10-29T16:31:23.291Z,19.58
2022-10-29T16:33:52.907Z,24.30
2022-10-29T16:36:20.156Z,22.88
2022-10-29T16:38:47.472Z,22.98
2022-10-29T16:41:19.436Z,24.52
2022-10-29T16:43:46.833Z,24.70
2022-10-29T16:46:16.747Z,22.95
2022-10-29T16:48:44.153Z,24.67
2022-10-29T16:51:11.415Z,22.80
2022-10-29T16:53:38.676Z,24.42
2022-10-29T16:56:05.930Z,28.20
2022-10-29T16:58:33.173Z,26.08
2022-10-29T17:01:07.243Z,25.30
2022-10-29T17:03:37.336Z,24.45
2022-10-29T17:06:06.780Z,26.00
2022-10-29T17:08:34.803Z,23.65
2022-10-29T17:11:04.129Z,24.00
2022-10-29T17:13:31.350Z,24.08
2022-10-29T17:15:58.606Z,22.48
2022-10-29T17:18:25.879Z,20.02
2022-10-29T17:21:01.076Z,20.63
2022-10-29T17:23:29.031Z,21.42
2022-10-29T17:25:57.731Z,21.63
2022-10-29T17:28:26.378Z,21.33
2022-10-29T17:30:53.682Z,24.45
2022-10-29T17:33:20.902Z,22.05
2022-10-29T17:35:47.964Z,21.92
2022-10-29T17:38:15.189Z,18.25
2022-10-29T17:40:44.741Z,25.20
2022-10-29T17:43:11.998Z,22.95
2022-10-29T17:45:39.219Z,20.95
2022-10-29T17:48:07.449Z,19.05
2022-10-29T17:50:34.654Z,19.00
2022-10-29T17:53:01.960Z,20.88
2022-10-29T17:55:29.156Z,19.63
2022-10-29T17:57:56.664Z,18.73
2022-10-29T18:00:24.120Z,22.83
2022-10-29T18:02:51.674Z,21.35
2022-10-29T18:05:19.255Z,17.65
2022-10-29T18:07:46.560Z,17.20
2022-10-29T18:10:14.030Z,19.55
2022-10-29T18:12:41.383Z,17.55
2022-10-29T18:15:08.860Z,16.88
2022-10-29T18:17:36.684Z,19.33
2022-10-29T18:20:04.177Z,19.30
2022-10-29T18:22:31.477Z,19.48
2022-10-29T18:24:58.773Z,18.73
2022-10-29T18:27:26.175Z,20.45
2022-10-29T18:29:53.482Z,19.90
2022-10-29T18:32:20.708Z,21.15
2022-10-29T18:34:47.968Z,18.70
2022-10-29T18:37:15.196Z,20.15
2022-10-29T18:39:42.449Z,16.10
2022-10-29T18:42:09.901Z,16.77
2022-10-29T18:44:38.359Z,19.40
2022-10-29T18:47:05.665Z,17.33
2022-10-29T18:49:32.847Z,19.45
2022-10-29T18:52:00.200Z,17.40
2022-10-29T18:54:27.485Z,19.25
2022-10-29T18:56:55.016Z,18.02
2022-10-29T18:59:22.274Z,19.13
2022-10-29T19:01:49.677Z,16.92
2022-10-29T19:04:17.414Z,19.75
2022-10-29T19:06:44.734Z,17.13
2022-10-29T19:09:12.644Z,19.75
2022-10-29T19:11:39.953Z,20.65
2022-10-29T19:14:09.748Z,17.15
2022-10-29T19:16:36.632Z,16.90
2022-10-29T19:19:10.643Z,16.55
2022-10-29T19:21:39.568Z,22.35
2022-10-29T19:24:07.134Z,17.88
2022-10-29T19:26:35.526Z,18.08
2022-10-29T19:29:03.948Z,18.50
2022-10-29T19:31:32.812Z,17.52
2022-10-29T19:34:01.764Z,19.75
2022-10-29T19:36:29.647Z,17.95
2022-10-29T19:38:57.038Z,18.63
2022-10-29T19:41:24.636Z,17.90
2022-10-29T19:43:51.864Z,17.42
2022-10-29T19:46:24.268Z,21.88
2022-10-29T19:48:52.918Z,20.85
2022-10-29T19:51:20.603Z,17.63
2022-10-29T19:53:47.950Z,19.50
2022-10-29T19:56:16.366Z,20.30
2022-10-29T19:58:43.963Z,19.25
2022-10-29T20:01:15.990Z,19.42
2022-10-29T20:03:43.753Z,17.85
2022-10-29T20:06:11.059Z,22.65
2022-10-29T20:08:38.693Z,19.33
2022-10-29T20:11:06.770Z,18.63
2022-10-29T20:13:34.732Z,19.25
2022-10-29T20:16:07.451Z,20.52
2022-10-29T20:18:35.484Z,21.35
2022-10-29T20:21:02.775Z,19.30
2022-10-29T20:23:30.323Z,18.70
2022-10-29T20:25:57.632Z,19.75
2022-10-29T20:28:25.267Z,21.40
2022-10-29T20:31:34.737Z,18.60
2022-10-29T20:34:04.416Z,21.02
2022-10-29T20:36:32.706Z,18.17
2022-10-29T20:39:00.264Z,19.77
2022-10-29T20:41:28.367Z,18.52
2022-10-29T20:43:58.504Z,14.77
2022-10-29T20:46:26.015Z,16.10
2022-10-29T20:48:53.692Z,20.83
2022-10-29T20:51:22.732Z,17.90
2022-10-29T20:56:22.040Z,18.60
2022-10-29T20:58:49.322Z,17.17
2022-10-29T21:01:18.483Z,19.00
2022-10-29T21:03:45.931Z,17.15
2022-10-29T21:06:17.143Z,17.35
2022-10-29T21:08:45.227Z,17.48
2022-10-29T21:11:13.733Z,21.88
2022-10-29T21:13:41.170Z,17.70
2022-10-29T21:16:17.289Z,19.08
2022-10-29T21:18:46.835Z,18.40
2022-10-29T21:21:14.823Z,17.02
2022-10-29T21:23:42.338Z,17.75
2022-10-29T21:26:16.441Z,20.45
2022-10-29T21:28:43.943Z,13.88
2022-10-29T21:31:11.456Z,20.38
2022-10-29T21:33:38.701Z,17.63
2022-10-29T21:36:06.104Z,14.00
2022-10-29T21:38:33.566Z,17.05
2022-10-29T21:41:02.144Z,16.45
2022-10-29T21:43:29.554Z,14.65
2022-10-29T21:45:56.982Z,17.08
2022-10-29T21:48:28.655Z,15.43
2022-10-29T21:51:00.897Z,14.32
2022-10-29T21:53:28.343Z,16.50
2022-10-29T21:55:59.396Z,15.65
2022-10-29T21:58:27.212Z,17.45
2022-10-29T22:01:04.650Z,15.20
2022-10-29T22:03:32.995Z,17.35
2022-10-29T22:06:17.317Z,17.13
2022-10-29T22:08:45.076Z,16.77
2022-10-29T22:11:13.100Z,18.60
2022-10-29T22:13:40.745Z,16.38
2022-10-29T22:16:08.910Z,15.75
2022-10-29T22:18:37.323Z,15.13
2022-10-29T22:21:08.759Z,14.77
2022-10-29T22:23:37.920Z,20.63
2022-10-29T22:26:05.402Z,19.05
2022-10-29T22:28:32.713Z,15.70
2022-10-29T22:31:01.662Z,14.50
2022-10-29T22:33:29.478Z,18.38
2022-10-29T22:35:56.811Z,12.85
2022-10-29T22:38:24.026Z,15.18
2022-10-29T22:40:51.271Z,17.83
2022-10-29T22:43:18.522Z,13.25
2022-10-29T22:45:46.264Z,16.73
2022-10-29T22:48:13.558Z,17.17
2022-10-29T22:50:40.752Z,15.10
2022-10-29T22:53:07.980Z,14.65
2022-10-29T22:55:35.183Z,15.80
2022-10-29T22:58:02.406Z,15.82
2022-10-29T23:00:29.605Z,13.88
2022-10-29T23:02:57.138Z,18.35
2022-10-29T23:05:24.704Z,16.85
2022-10-29T23:07:52.030Z,20.23
2022-10-29T23:10:19.211Z,15.63
2022-10-29T23:12:46.433Z,19.50
2022-10-29T23:15:13.892Z,16.50
2022-10-29T23:17:41.094Z,15.50
2022-10-29T23:20:08.298Z,16.35
2022-10-29T23:22:35.539Z,14.38
2022-10-29T23:25:02.778Z,18.95
2022-10-29T23:27:30.032Z,16.63
2022-10-29T23:29:57.245Z,16.30
2022-10-29T23:32:24.479Z,18.13
2022-10-29T23:34:51.872Z,15.73
2022-10-29T23:37:19.137Z,15.48
2022-10-29T23:39:46.385Z,14.77
2022-10-29T23:42:13.598Z,16.05
2022-10-29T23:44:40.437Z,15.63
2022-10-29T23:47:07.756Z,16.45
2022-10-29T23:49:34.994Z,18.58
2022-10-29T23:52:02.161Z,17.20
2022-10-29T23:54:29.508Z,19.88
2022-10-29T23:56:56.756Z,16.48
2022-10-29T23:59:23.966Z,12.68
